sensor_id;sensor_type;location;lat;lon;timestamp;pressure;altitude;pressure_sealevel;temperature;humidity
50105;BME280;47690;39.202;-77.198;2023-12-04T00:01:23;99162.28;;;16.01;78.06
50105;BME280;47690;39.202;-77.198;2023-12-04T00:04:13;99179.63;;;16.00;78.17
50105;BME280;47690;39.202;-77.198;2023-12-04T00:07:07;99172.00;;;15.97;77.79
50105;BME280;47690;39.202;-77.198;2023-12-04T00:09:57;99186.00;;;15.94;78.14
50105;BME280;47690;39.202;-77.198;2023-12-04T00:12:46;99178.22;;;15.94;78.21
50105;BME280;47690;39.202;-77.198;2023-12-04T00:15:36;99186.06;;;15.93;78.30
50105;BME280;47690;39.202;-77.198;2023-12-04T00:18:26;99199.00;;;15.94;78.39
50105;BME280;47690;39.202;-77.198;2023-12-04T00:21:17;99203.47;;;15.91;78.29
50105;BME280;47690;39.202;-77.198;2023-12-04T00:24:06;99195.84;;;15.88;78.39
50105;BME280;47690;39.202;-77.198;2023-12-04T00:26:58;99204.47;;;15.88;78.66
50105;BME280;47690;39.202;-77.198;2023-12-04T00:29:48;99207.91;;;15.89;78.51
50105;BME280;47690;39.202;-77.198;2023-12-04T00:33:09;99203.56;;;15.89;78.56
50105;BME280;47690;39.202;-77.198;2023-12-04T00:35:59;99199.13;;;15.91;78.47
50105;BME280;47690;39.202;-77.198;2023-12-04T00:38:50;99202.47;;;15.93;78.45
50105;BME280;47690;39.202;-77.198;2023-12-04T00:41:40;99209.38;;;15.94;78.39
50105;BME280;47690;39.202;-77.198;2023-12-04T00:44:30;99224.84;;;15.96;78.30
50105;BME280;47690;39.202;-77.198;2023-12-04T00:47:20;99244.63;;;15.98;78.18
50105;BME280;47690;39.202;-77.198;2023-12-04T00:50:11;99261.16;;;15.97;78.19
50105;BME280;47690;39.202;-77.198;2023-12-04T00:53:01;99257.88;;;15.94;78.44
50105;BME280;47690;39.202;-77.198;2023-12-04T00:55:51;99249.38;;;15.90;78.31
50105;BME280;47690;39.202;-77.198;2023-12-04T00:58:40;99238.94;;;15.92;78.39
50105;BME280;47690;39.202;-77.198;2023-12-04T01:01:30;99236.38;;;15.90;78.37
50105;BME280;47690;39.202;-77.198;2023-12-04T01:04:19;99235.41;;;15.93;78.29
50105;BME280;47690;39.202;-77.198;2023-12-04T01:07:09;99216.38;;;15.92;78.38
50105;BME280;47690;39.202;-77.198;2023-12-04T01:09:57;99213.94;;;15.89;78.48
50105;BME280;47690;39.202;-77.198;2023-12-04T01:12:49;99213.53;;;15.97;78.06
50105;BME280;47690;39.202;-77.198;2023-12-04T01:15:38;99229.13;;;15.97;77.84
50105;BME280;47690;39.202;-77.198;2023-12-04T01:18:32;99253.69;;;15.91;78.27
50105;BME280;47690;39.202;-77.198;2023-12-04T01:21:21;99244.03;;;15.93;78.29
50105;BME280;47690;39.202;-77.198;2023-12-04T01:24:14;99237.84;;;15.96;78.42
50105;BME280;47690;39.202;-77.198;2023-12-04T01:27:05;99223.09;;;15.96;78.05
50105;BME280;47690;39.202;-77.198;2023-12-04T01:29:55;99229.97;;;15.97;77.93
50105;BME280;47690;39.202;-77.198;2023-12-04T01:32:44;99234.44;;;15.95;77.94
50105;BME280;47690;39.202;-77.198;2023-12-04T01:35:39;99239.63;;;15.95;78.04
50105;BME280;47690;39.202;-77.198;2023-12-04T01:38:31;99244.03;;;15.93;77.81
50105;BME280;47690;39.202;-77.198;2023-12-04T01:41:20;99236.25;;;15.93;77.92
50105;BME280;47690;39.202;-77.198;2023-12-04T01:44:10;99243.13;;;15.94;77.83
50105;BME280;47690;39.202;-77.198;2023-12-04T01:46:59;99241.44;;;15.93;77.71
50105;BME280;47690;39.202;-77.198;2023-12-04T01:49:53;99242.22;;;15.95;78.07
50105;BME280;47690;39.202;-77.198;2023-12-04T01:52:43;99224.97;;;15.94;77.35
50105;BME280;47690;39.202;-77.198;2023-12-04T01:55:36;99231.97;;;15.92;77.39
50105;BME280;47690;39.202;-77.198;2023-12-04T01:58:28;99237.31;;;15.89;77.05
50105;BME280;47690;39.202;-77.198;2023-12-04T02:01:17;99238.31;;;15.87;76.97
50105;BME280;47690;39.202;-77.198;2023-12-04T02:04:10;99241.16;;;15.82;77.12
50105;BME280;47690;39.202;-77.198;2023-12-04T02:07:00;99244.94;;;15.76;76.85
50105;BME280;47690;39.202;-77.198;2023-12-04T02:09:52;99237.28;;;15.73;76.69
50105;BME280;47690;39.202;-77.198;2023-12-04T02:12:45;99235.78;;;15.69;76.22
50105;BME280;47690;39.202;-77.198;2023-12-04T02:15:37;99236.84;;;15.65;76.43
50105;BME280;47690;39.202;-77.198;2023-12-04T02:18:26;99231.59;;;15.66;76.12
50105;BME280;47690;39.202;-77.198;2023-12-04T02:21:15;99241.28;;;15.63;75.70
50105;BME280;47690;39.202;-77.198;2023-12-04T02:24:04;99237.34;;;15.55;75.28
50105;BME280;47690;39.202;-77.198;2023-12-04T02:27:12;99238.25;;;15.54;75.17
50105;BME280;47690;39.202;-77.198;2023-12-04T02:30:06;99247.28;;;15.47;74.69
50105;BME280;47690;39.202;-77.198;2023-12-04T02:33:09;99254.38;;;15.43;74.43
50105;BME280;47690;39.202;-77.198;2023-12-04T02:36:02;99237.22;;;15.41;73.84
50105;BME280;47690;39.202;-77.198;2023-12-04T02:38:58;99239.19;;;15.36;73.54
50105;BME280;47690;39.202;-77.198;2023-12-04T02:41:49;99250.63;;;15.32;72.83
50105;BME280;47690;39.202;-77.198;2023-12-04T02:44:40;99224.19;;;15.25;72.06
50105;BME280;47690;39.202;-77.198;2023-12-04T02:47:35;99232.81;;;15.25;71.92
50105;BME280;47690;39.202;-77.198;2023-12-04T02:50:25;99238.13;;;15.22;70.97
50105;BME280;47690;39.202;-77.198;2023-12-04T02:53:19;99234.63;;;15.23;70.29
50105;BME280;47690;39.202;-77.198;2023-12-04T02:56:11;99234.63;;;15.23;69.60
50105;BME280;47690;39.202;-77.198;2023-12-04T02:59:07;99244.19;;;15.23;69.42
50105;BME280;47690;39.202;-77.198;2023-12-04T03:01:58;99239.06;;;15.21;69.12
50105;BME280;47690;39.202;-77.198;2023-12-04T03:04:47;99241.81;;;15.18;67.28
50105;BME280;47690;39.202;-77.198;2023-12-04T03:07:39;99250.44;;;15.19;66.80
50105;BME280;47690;39.202;-77.198;2023-12-04T03:10:29;99257.38;;;15.18;67.00
50105;BME280;47690;39.202;-77.198;2023-12-04T03:13:19;99250.59;;;15.15;65.15
50105;BME280;47690;39.202;-77.198;2023-12-04T03:16:16;99268.59;;;15.19;64.46
50105;BME280;47690;39.202;-77.198;2023-12-04T03:19:07;99263.41;;;15.19;64.83
50105;BME280;47690;39.202;-77.198;2023-12-04T03:21:57;99263.63;;;15.14;64.08
50105;BME280;47690;39.202;-77.198;2023-12-04T03:24:46;99273.78;;;15.19;64.06
50105;BME280;47690;39.202;-77.198;2023-12-04T03:27:35;99272.84;;;15.20;63.54
50105;BME280;47690;39.202;-77.198;2023-12-04T03:30:35;99285.81;;;15.20;62.16
50105;BME280;47690;39.202;-77.198;2023-12-04T03:33:28;99294.63;;;15.17;63.49
50105;BME280;47690;39.202;-77.198;2023-12-04T03:36:19;99304.22;;;15.15;63.44
50105;BME280;47690;39.202;-77.198;2023-12-04T03:39:10;99304.38;;;15.12;62.53
50105;BME280;47690;39.202;-77.198;2023-12-04T03:42:00;99306.34;;;15.07;62.23
50105;BME280;47690;39.202;-77.198;2023-12-04T03:44:49;99303.00;;;15.05;62.60
50105;BME280;47690;39.202;-77.198;2023-12-04T03:47:38;99319.38;;;15.05;62.94
50105;BME280;47690;39.202;-77.198;2023-12-04T03:50:39;99324.50;;;15.07;60.52
50105;BME280;47690;39.202;-77.198;2023-12-04T03:53:28;99326.41;;;15.03;61.84
50105;BME280;47690;39.202;-77.198;2023-12-04T03:56:17;99324.66;;;15.04;61.91
50105;BME280;47690;39.202;-77.198;2023-12-04T03:59:09;99336.94;;;15.00;60.80
50105;BME280;47690;39.202;-77.198;2023-12-04T04:01:59;99340.50;;;14.97;60.35
50105;BME280;47690;39.202;-77.198;2023-12-04T04:04:48;99349.13;;;14.98;60.37
50105;BME280;47690;39.202;-77.198;2023-12-04T04:07:39;99342.25;;;14.97;60.02
50105;BME280;47690;39.202;-77.198;2023-12-04T04:10:33;99351.88;;;14.95;59.14
50105;BME280;47690;39.202;-77.198;2023-12-04T04:13:23;99348.59;;;14.91;58.55
50105;BME280;47690;39.202;-77.198;2023-12-04T04:16:15;99355.50;;;14.91;58.04
50105;BME280;47690;39.202;-77.198;2023-12-04T04:19:06;99349.44;;;14.92;57.27
50105;BME280;47690;39.202;-77.198;2023-12-04T04:21:57;99352.91;;;14.91;57.18
50105;BME280;47690;39.202;-77.198;2023-12-04T04:24:48;99347.03;;;14.87;56.82
50105;BME280;47690;39.202;-77.198;2023-12-04T04:27:37;99357.28;;;14.90;56.50
50105;BME280;47690;39.202;-77.198;2023-12-04T04:30:27;99373.81;;;14.87;56.42
50105;BME280;47690;39.202;-77.198;2023-12-04T04:33:17;99389.44;;;14.86;55.93
50105;BME280;47690;39.202;-77.198;2023-12-04T04:36:09;99395.59;;;14.83;55.79
50105;BME280;47690;39.202;-77.198;2023-12-04T04:38:59;99401.84;;;14.79;55.66
50105;BME280;47690;39.202;-77.198;2023-12-04T04:41:51;99425.31;;;14.76;55.09
50105;BME280;47690;39.202;-77.198;2023-12-04T04:44:46;99420.00;;;14.79;55.85
50105;BME280;47690;39.202;-77.198;2023-12-04T04:47:35;99421.84;;;14.77;56.03
50105;BME280;47690;39.202;-77.198;2023-12-04T04:50:27;99421.03;;;14.75;55.05
50105;BME280;47690;39.202;-77.198;2023-12-04T04:53:17;99431.50;;;14.73;55.11
50105;BME280;47690;39.202;-77.198;2023-12-04T04:56:08;99399.56;;;14.71;54.91
50105;BME280;47690;39.202;-77.198;2023-12-04T04:58:57;99404.97;;;14.67;54.25
50105;BME280;47690;39.202;-77.198;2023-12-04T05:01:54;99403.28;;;14.66;53.80
50105;BME280;47690;39.202;-77.198;2023-12-04T05:04:52;99409.38;;;14.65;53.04
50105;BME280;47690;39.202;-77.198;2023-12-04T05:07:41;99395.03;;;14.57;52.44
50105;BME280;47690;39.202;-77.198;2023-12-04T05:10:30;99398.03;;;14.48;51.86
50105;BME280;47690;39.202;-77.198;2023-12-04T05:13:19;99410.63;;;14.37;51.49
50105;BME280;47690;39.202;-77.198;2023-12-04T05:16:14;99404.25;;;14.44;46.10
50105;BME280;47690;39.202;-77.198;2023-12-04T05:19:06;99415.97;;;14.33;51.05
50105;BME280;47690;39.202;-77.198;2023-12-04T05:21:59;99420.28;;;14.33;51.43
50105;BME280;47690;39.202;-77.198;2023-12-04T05:24:49;99421.19;;;14.32;51.49
50105;BME280;47690;39.202;-77.198;2023-12-04T05:27:39;99423.84;;;14.30;51.34
50105;BME280;47690;39.202;-77.198;2023-12-04T05:30:29;99418.75;;;14.29;51.03
50105;BME280;47690;39.202;-77.198;2023-12-04T05:33:27;99423.41;;;14.20;50.03
50105;BME280;47690;39.202;-77.198;2023-12-04T05:36:27;99408.16;;;14.14;49.91
50105;BME280;47690;39.202;-77.198;2023-12-04T05:39:18;99425.47;;;14.12;49.75
50105;BME280;47690;39.202;-77.198;2023-12-04T05:42:07;99426.53;;;14.08;50.11
50105;BME280;47690;39.202;-77.198;2023-12-04T05:44:56;99422.34;;;14.05;49.91
50105;BME280;47690;39.202;-77.198;2023-12-04T05:47:47;99433.50;;;14.06;50.12
50105;BME280;47690;39.202;-77.198;2023-12-04T05:50:37;99427.50;;;14.05;49.66
50105;BME280;47690;39.202;-77.198;2023-12-04T05:53:33;99437.16;;;14.02;48.62
50105;BME280;47690;39.202;-77.198;2023-12-04T05:56:28;99448.69;;;13.95;48.83
50105;BME280;47690;39.202;-77.198;2023-12-04T05:59:20;99457.66;;;13.86;48.80
50105;BME280;47690;39.202;-77.198;2023-12-04T06:02:10;99452.56;;;13.84;49.02
50105;BME280;47690;39.202;-77.198;2023-12-04T06:04:59;99464.78;;;13.81;48.87
50105;BME280;47690;39.202;-77.198;2023-12-04T06:07:49;99457.03;;;13.81;49.08
50105;BME280;47690;39.202;-77.198;2023-12-04T06:10:39;99451.84;;;13.81;49.15
50105;BME280;47690;39.202;-77.198;2023-12-04T06:13:28;99454.44;;;13.81;49.23
50105;BME280;47690;39.202;-77.198;2023-12-04T06:16:18;99455.25;;;13.81;49.47
50105;BME280;47690;39.202;-77.198;2023-12-04T06:19:08;99465.75;;;13.78;48.89
50105;BME280;47690;39.202;-77.198;2023-12-04T06:21:58;99460.94;;;13.69;48.83
50105;BME280;47690;39.202;-77.198;2023-12-04T06:24:48;99466.06;;;13.70;49.21
50105;BME280;47690;39.202;-77.198;2023-12-04T06:27:37;99463.47;;;13.70;48.73
50105;BME280;47690;39.202;-77.198;2023-12-04T06:30:29;99466.44;;;13.61;48.05
50105;BME280;47690;39.202;-77.198;2023-12-04T06:33:21;99470.84;;;13.59;48.65
50105;BME280;47690;39.202;-77.198;2023-12-04T06:36:21;99479.44;;;13.59;48.68
50105;BME280;47690;39.202;-77.198;2023-12-04T06:39:13;99478.84;;;13.52;48.70
50105;BME280;47690;39.202;-77.198;2023-12-04T06:42:08;99483.22;;;13.50;48.55
50105;BME280;47690;39.202;-77.198;2023-12-04T06:44:58;99484.13;;;13.49;48.68
50105;BME280;47690;39.202;-77.198;2023-12-04T06:47:50;99490.25;;;13.47;48.31
50105;BME280;47690;39.202;-77.198;2023-12-04T06:50:41;99486.03;;;13.44;48.39
50105;BME280;47690;39.202;-77.198;2023-12-04T06:53:36;99492.84;;;13.47;48.24
50105;BME280;47690;39.202;-77.198;2023-12-04T06:56:40;99486.91;;;13.43;46.28
50105;BME280;47690;39.202;-77.198;2023-12-04T06:59:46;99491.44;;;13.38;47.77
50105;BME280;47690;39.202;-77.198;2023-12-04T07:02:35;99496.81;;;13.33;47.92
50105;BME280;47690;39.202;-77.198;2023-12-04T07:05:28;99495.00;;;13.35;47.49
50105;BME280;47690;39.202;-77.198;2023-12-04T07:08:16;99496.72;;;13.35;47.90
50105;BME280;47690;39.202;-77.198;2023-12-04T07:11:06;99497.53;;;13.37;47.77
50105;BME280;47690;39.202;-77.198;2023-12-04T07:13:56;99482.25;;;13.31;47.72
50105;BME280;47690;39.202;-77.198;2023-12-04T07:16:53;99488.00;;;13.37;47.13
50105;BME280;47690;39.202;-77.198;2023-12-04T07:19:42;99494.22;;;13.33;47.69
50105;BME280;47690;39.202;-77.198;2023-12-04T07:22:48;99496.81;;;13.33;47.50
50105;BME280;47690;39.202;-77.198;2023-12-04T07:25:46;99503.84;;;13.30;47.73
50105;BME280;47690;39.202;-77.198;2023-12-04T07:28:37;99498.66;;;13.30;47.81
50105;BME280;47690;39.202;-77.198;2023-12-04T07:31:41;99488.25;;;13.31;47.90
50105;BME280;47690;39.202;-77.198;2023-12-04T07:34:35;99491.81;;;13.29;47.71
50105;BME280;47690;39.202;-77.198;2023-12-04T07:37:28;99496.19;;;13.27;47.21
50105;BME280;47690;39.202;-77.198;2023-12-04T07:40:20;99506.59;;;13.25;47.57
50105;BME280;47690;39.202;-77.198;2023-12-04T07:43:13;99517.09;;;13.20;47.40
50105;BME280;47690;39.202;-77.198;2023-12-04T07:46:06;99509.59;;;13.14;47.35
50105;BME280;47690;39.202;-77.198;2023-12-04T07:49:06;99508.78;;;13.12;47.41
50105;BME280;47690;39.202;-77.198;2023-12-04T07:51:55;99500.22;;;13.11;47.46
50105;BME280;47690;39.202;-77.198;2023-12-04T07:54:55;99510.59;;;13.10;47.33
50105;BME280;47690;39.202;-77.198;2023-12-04T07:57:45;99509.88;;;13.06;47.09
50105;BME280;47690;39.202;-77.198;2023-12-04T08:00:37;99504.88;;;13.02;46.92
50105;BME280;47690;39.202;-77.198;2023-12-04T08:03:27;99513.63;;;12.97;47.26
50105;BME280;47690;39.202;-77.198;2023-12-04T08:06:21;99516.22;;;12.97;46.87
50105;BME280;47690;39.202;-77.198;2023-12-04T08:09:10;99525.81;;;12.94;47.19
50105;BME280;47690;39.202;-77.198;2023-12-04T08:11:59;99512.97;;;12.92;47.33
50105;BME280;47690;39.202;-77.198;2023-12-04T08:14:48;99523.38;;;12.91;47.20
50105;BME280;47690;39.202;-77.198;2023-12-04T08:17:37;99522.59;;;12.89;47.37
50105;BME280;47690;39.202;-77.198;2023-12-04T08:20:27;99520.81;;;12.89;47.28
50105;BME280;47690;39.202;-77.198;2023-12-04T08:23:27;99521.69;;;12.90;46.91
50105;BME280;47690;39.202;-77.198;2023-12-04T08:26:23;99535.44;;;12.90;46.95
50105;BME280;47690;39.202;-77.198;2023-12-04T08:29:13;99533.75;;;12.89;47.20
50105;BME280;47690;39.202;-77.198;2023-12-04T08:32:07;99540.59;;;12.90;46.75
50105;BME280;47690;39.202;-77.198;2023-12-04T08:34:58;99526.16;;;12.84;47.13
50105;BME280;47690;39.202;-77.198;2023-12-04T08:37:47;99543.19;;;12.90;46.97
50105;BME280;47690;39.202;-77.198;2023-12-04T08:40:36;99537.25;;;12.88;47.19
50105;BME280;47690;39.202;-77.198;2023-12-04T08:43:27;99532.94;;;12.89;47.19
50105;BME280;47690;39.202;-77.198;2023-12-04T08:46:21;99527.03;;;12.85;46.82
50105;BME280;47690;39.202;-77.198;2023-12-04T08:49:11;99516.72;;;12.83;47.00
50105;BME280;47690;39.202;-77.198;2023-12-04T08:52:10;99520.16;;;12.84;46.73
50105;BME280;47690;39.202;-77.198;2023-12-04T08:54:59;99510.88;;;12.78;46.99
50105;BME280;47690;39.202;-77.198;2023-12-04T08:57:49;99505.75;;;12.77;46.63
50105;BME280;47690;39.202;-77.198;2023-12-04T09:00:40;99510.19;;;12.73;46.64
50105;BME280;47690;39.202;-77.198;2023-12-04T09:03:32;99518.94;;;12.70;46.60
50105;BME280;47690;39.202;-77.198;2023-12-04T09:06:25;99510.38;;;12.68;46.60
50105;BME280;47690;39.202;-77.198;2023-12-04T09:09:18;99514.88;;;12.63;46.50
50105;BME280;47690;39.202;-77.198;2023-12-04T09:12:09;99508.84;;;12.63;46.68
50105;BME280;47690;39.202;-77.198;2023-12-04T09:15:00;99501.88;;;12.65;46.74
50105;BME280;47690;39.202;-77.198;2023-12-04T09:17:51;99510.59;;;12.62;46.40
50105;BME280;47690;39.202;-77.198;2023-12-04T09:20:40;99505.44;;;12.62;46.85
50105;BME280;47690;39.202;-77.198;2023-12-04T09:23:29;99512.22;;;12.65;46.65
50105;BME280;47690;39.202;-77.198;2023-12-04T09:26:21;99515.59;;;12.67;46.81
50105;BME280;47690;39.202;-77.198;2023-12-04T09:29:11;99509.63;;;12.65;46.48
50105;BME280;47690;39.202;-77.198;2023-12-04T09:32:04;99519.19;;;12.63;46.64
50105;BME280;47690;39.202;-77.198;2023-12-04T09:35:11;99528.75;;;12.61;46.49
50105;BME280;47690;39.202;-77.198;2023-12-04T09:38:02;99528.81;;;12.57;46.18
50105;BME280;47690;39.202;-77.198;2023-12-04T09:40:58;99529.72;;;12.56;46.46
50105;BME280;47690;39.202;-77.198;2023-12-04T09:43:51;99515.16;;;12.54;46.33
50105;BME280;47690;39.202;-77.198;2023-12-04T09:46:43;99510.00;;;12.54;46.52
50105;BME280;47690;39.202;-77.198;2023-12-04T09:49:33;99508.31;;;12.53;46.38
50105;BME280;47690;39.202;-77.198;2023-12-04T09:52:27;99504.06;;;12.52;46.20
50105;BME280;47690;39.202;-77.198;2023-12-04T09:55:19;99502.34;;;12.52;46.38
50105;BME280;47690;39.202;-77.198;2023-12-04T09:58:10;99496.25;;;12.53;46.43
50105;BME280;47690;39.202;-77.198;2023-12-04T10:01:04;99489.25;;;12.57;46.24
50105;BME280;47690;39.202;-77.198;2023-12-04T10:04:00;99485.88;;;12.55;46.11
50105;BME280;47690;39.202;-77.198;2023-12-04T10:06:53;99484.25;;;12.52;46.11
50105;BME280;47690;39.202;-77.198;2023-12-04T10:09:47;99488.59;;;12.50;46.09
50105;BME280;47690;39.202;-77.198;2023-12-04T10:12:37;99497.41;;;12.45;46.19
50105;BME280;47690;39.202;-77.198;2023-12-04T10:15:26;99495.00;;;12.40;45.81
50105;BME280;47690;39.202;-77.198;2023-12-04T10:18:30;99491.53;;;12.41;45.24
50105;BME280;47690;39.202;-77.198;2023-12-04T10:21:35;99488.91;;;12.42;45.90
50105;BME280;47690;39.202;-77.198;2023-12-04T10:24:38;99481.84;;;12.48;45.48
50105;BME280;47690;39.202;-77.198;2023-12-04T10:27:27;99489.66;;;12.45;46.03
50105;BME280;47690;39.202;-77.198;2023-12-04T10:30:26;99500.00;;;12.45;45.55
50105;BME280;47690;39.202;-77.198;2023-12-04T10:33:24;99511.13;;;12.47;45.53
50105;BME280;47690;39.202;-77.198;2023-12-04T10:36:18;99506.06;;;12.43;45.91
50105;BME280;47690;39.202;-77.198;2023-12-04T10:39:09;99505.38;;;12.38;46.07
50105;BME280;47690;39.202;-77.198;2023-12-04T10:42:07;99525.94;;;12.41;45.74
50105;BME280;47690;39.202;-77.198;2023-12-04T10:44:58;99542.22;;;12.43;46.15
50105;BME280;47690;39.202;-77.198;2023-12-04T10:47:49;99549.94;;;12.45;46.22
50105;BME280;47690;39.202;-77.198;2023-12-04T10:50:44;99561.91;;;12.48;46.12
50105;BME280;47690;39.202;-77.198;2023-12-04T10:53:38;99567.13;;;12.46;45.93
50105;BME280;47690;39.202;-77.198;2023-12-04T10:56:37;99563.69;;;12.46;45.88
50105;BME280;47690;39.202;-77.198;2023-12-04T10:59:32;99560.31;;;12.43;45.93
50105;BME280;47690;39.202;-77.198;2023-12-04T11:02:26;99567.31;;;12.40;45.84
50105;BME280;47690;39.202;-77.198;2023-12-04T11:05:19;99560.94;;;12.50;43.91
50105;BME280;47690;39.202;-77.198;2023-12-04T11:08:14;99552.72;;;12.39;46.04
50105;BME280;47690;39.202;-77.198;2023-12-04T11:11:10;99554.59;;;12.34;45.96
50105;BME280;47690;39.202;-77.198;2023-12-04T11:14:05;99549.56;;;12.31;46.06
50105;BME280;47690;39.202;-77.198;2023-12-04T11:17:04;99546.22;;;12.27;45.51
50105;BME280;47690;39.202;-77.198;2023-12-04T11:20:07;99550.53;;;12.26;45.58
50105;BME280;47690;39.202;-77.198;2023-12-04T11:23:03;99559.16;;;12.27;46.21
50105;BME280;47690;39.202;-77.198;2023-12-04T11:25:58;99566.03;;;12.26;45.72
50105;BME280;47690;39.202;-77.198;2023-12-04T11:28:51;99572.13;;;12.24;46.13
50105;BME280;47690;39.202;-77.198;2023-12-04T11:31:43;99575.63;;;12.23;45.96
50105;BME280;47690;39.202;-77.198;2023-12-04T11:34:37;99585.22;;;12.19;45.77
50105;BME280;47690;39.202;-77.198;2023-12-04T11:37:27;99587.00;;;12.17;46.13
50105;BME280;47690;39.202;-77.198;2023-12-04T11:40:17;99593.00;;;12.18;46.20
50105;BME280;47690;39.202;-77.198;2023-12-04T11:43:24;99586.97;;;12.19;45.36
50105;BME280;47690;39.202;-77.198;2023-12-04T11:46:23;99580.09;;;12.18;46.03
50105;BME280;47690;39.202;-77.198;2023-12-04T11:49:31;99586.06;;;12.20;45.78
50105;BME280;47690;39.202;-77.198;2023-12-04T11:52:34;99588.69;;;12.18;45.85
50105;BME280;47690;39.202;-77.198;2023-12-04T11:55:25;99598.16;;;12.18;46.07
50105;BME280;47690;39.202;-77.198;2023-12-04T11:58:17;99607.69;;;12.15;46.00
50105;BME280;47690;39.202;-77.198;2023-12-04T12:01:06;99610.38;;;12.12;46.16
50105;BME280;47690;39.202;-77.198;2023-12-04T12:03:58;99614.84;;;12.07;45.95
50105;BME280;47690;39.202;-77.198;2023-12-04T12:06:47;99624.28;;;12.08;46.26
50105;BME280;47690;39.202;-77.198;2023-12-04T12:09:38;99617.44;;;12.07;46.08
50105;BME280;47690;39.202;-77.198;2023-12-04T12:12:28;99627.72;;;12.09;46.12
50105;BME280;47690;39.202;-77.198;2023-12-04T12:15:17;99610.47;;;12.09;46.28
50105;BME280;47690;39.202;-77.198;2023-12-04T12:18:06;99601.97;;;12.06;46.10
50105;BME280;47690;39.202;-77.198;2023-12-04T12:20:58;99612.38;;;12.04;45.90
50105;BME280;47690;39.202;-77.198;2023-12-04T12:23:46;99613.31;;;12.00;46.04
50105;BME280;47690;39.202;-77.198;2023-12-04T12:26:37;99623.63;;;12.00;46.08
50105;BME280;47690;39.202;-77.198;2023-12-04T12:29:27;99622.88;;;11.96;46.13
50105;BME280;47690;39.202;-77.198;2023-12-04T12:32:17;99617.69;;;11.98;46.06
50105;BME280;47690;39.202;-77.198;2023-12-04T12:35:07;99609.94;;;11.98;46.13
50105;BME280;47690;39.202;-77.198;2023-12-04T12:37:58;99603.88;;;11.99;46.10
50105;BME280;47690;39.202;-77.198;2023-12-04T12:40:47;99593.56;;;11.99;46.09
50105;BME280;47690;39.202;-77.198;2023-12-04T12:43:38;99588.28;;;12.02;46.13
50105;BME280;47690;39.202;-77.198;2023-12-04T12:46:28;99608.94;;;12.04;46.10
50105;BME280;47690;39.202;-77.198;2023-12-04T12:49:19;99622.59;;;12.07;46.17
50105;BME280;47690;39.202;-77.198;2023-12-04T12:52:26;99627.59;;;12.12;46.06
50105;BME280;47690;39.202;-77.198;2023-12-04T12:55:24;99634.38;;;12.16;45.72
50105;BME280;47690;39.202;-77.198;2023-12-04T12:58:21;99636.03;;;12.19;45.54
50105;BME280;47690;39.202;-77.198;2023-12-04T13:01:12;99635.94;;;12.20;45.86
50105;BME280;47690;39.202;-77.198;2023-12-04T13:04:15;99641.81;;;12.25;45.78
50105;BME280;47690;39.202;-77.198;2023-12-04T13:07:12;99640.88;;;12.28;45.85
50105;BME280;47690;39.202;-77.198;2023-12-04T13:10:04;99643.47;;;12.28;45.70
50105;BME280;47690;39.202;-77.198;2023-12-04T13:12:57;99655.44;;;12.31;45.79
50105;BME280;47690;39.202;-77.198;2023-12-04T13:15:48;99647.69;;;12.31;45.83
50105;BME280;47690;39.202;-77.198;2023-12-04T13:18:41;99651.91;;;12.33;45.53
50105;BME280;47690;39.202;-77.198;2023-12-04T13:21:30;99652.75;;;12.34;45.68
50105;BME280;47690;39.202;-77.198;2023-12-04T13:24:24;99651.84;;;12.35;45.54
50105;BME280;47690;39.202;-77.198;2023-12-04T13:27:17;99662.19;;;12.35;45.59
50105;BME280;47690;39.202;-77.198;2023-12-04T13:30:07;99657.75;;;12.38;45.63
50105;BME280;47690;39.202;-77.198;2023-12-04T13:33:06;99648.25;;;12.40;45.77
50105;BME280;47690;39.202;-77.198;2023-12-04T13:36:01;99660.19;;;12.43;45.53
50105;BME280;47690;39.202;-77.198;2023-12-04T13:38:56;99656.75;;;12.44;45.52
50105;BME280;47690;39.202;-77.198;2023-12-04T13:41:52;99654.94;;;12.46;45.36
50105;BME280;47690;39.202;-77.198;2023-12-04T13:45:02;99657.56;;;12.45;45.59
50105;BME280;47690;39.202;-77.198;2023-12-04T13:47:53;99673.09;;;12.43;45.41
50105;BME280;47690;39.202;-77.198;2023-12-04T13:50:43;99698.06;;;12.44;45.41
50105;BME280;47690;39.202;-77.198;2023-12-04T13:53:33;99708.41;;;12.44;45.55
50105;BME280;47690;39.202;-77.198;2023-12-04T13:56:23;99718.78;;;12.42;45.28
50105;BME280;47690;39.202;-77.198;2023-12-04T13:59:13;99730.78;;;12.43;45.56
50105;BME280;47690;39.202;-77.198;2023-12-04T14:02:13;99730.75;;;12.45;45.49
50105;BME280;47690;39.202;-77.198;2023-12-04T14:05:04;99731.53;;;12.47;45.51
50105;BME280;47690;39.202;-77.198;2023-12-04T14:07:54;99740.91;;;12.51;45.79
50105;BME280;47690;39.202;-77.198;2023-12-04T14:10:44;99756.19;;;12.57;45.81
50105;BME280;47690;39.202;-77.198;2023-12-04T14:13:37;99766.41;;;12.62;45.88
50105;BME280;47690;39.202;-77.198;2023-12-04T14:16:29;99761.88;;;12.69;46.16
50105;BME280;47690;39.202;-77.198;2023-12-04T14:19:19;99759.31;;;12.67;46.37
50105;BME280;47690;39.202;-77.198;2023-12-04T14:22:10;99778.09;;;12.74;46.04
50105;BME280;47690;39.202;-77.198;2023-12-04T14:25:00;99787.34;;;12.81;45.94
50105;BME280;47690;39.202;-77.198;2023-12-04T14:27:49;99784.63;;;12.84;46.04
50105;BME280;47690;39.202;-77.198;2023-12-04T14:30:38;99782.78;;;12.88;45.87
50105;BME280;47690;39.202;-77.198;2023-12-04T14:33:29;99783.44;;;12.95;46.00
50105;BME280;47690;39.202;-77.198;2023-12-04T14:36:19;99782.34;;;13.02;45.74
50105;BME280;47690;39.202;-77.198;2023-12-04T14:39:08;99780.41;;;13.09;45.72
50105;BME280;47690;39.202;-77.198;2023-12-04T14:42:00;99787.16;;;13.13;45.93
50105;BME280;47690;39.202;-77.198;2023-12-04T14:44:49;99795.63;;;13.18;45.39
50105;BME280;47690;39.202;-77.198;2023-12-04T14:47:41;99801.56;;;13.20;45.12
50105;BME280;47690;39.202;-77.198;2023-12-04T14:50:31;99800.63;;;13.23;45.20